Terminal Aerodrome Forecast
Issued by NWS

Home | Current Version | Previous Version | Text Only | Print | Product List | Glossary On
Versions: 1 2 3 4 5 6 7 8 9 10 11 12 13 14
000
FTUS45 KRIW 191700 RRA
TAFRKS
TAF
KRKS 191743Z 1918/2018 17008KT P6SM SCT090 BKN120
     FM191900 27012G22KT P6SM SCT120
     FM200100 30010KT P6SM SCT120
     FM200600 VRB06KT P6SM SKC
     FM201300 09006KT P6SM SKC=

USA.gov is the U.S. government's official web portal to all federal, state and local government web resources and services.